sensor_id;sensor_type;location;lat;lon;timestamp;pressure;altitude;pressure_sealevel;temperature;humidity
21956;BME280;11142;49.930;8.606;2023-12-07T00:02:06;100374.78;;;3.68;100.00
21956;BME280;11142;49.930;8.606;2023-12-07T00:04:34;100375.63;;;3.68;100.00
21956;BME280;11142;49.930;8.606;2023-12-07T00:07:04;100374.88;;;3.65;100.00
21956;BME280;11142;49.930;8.606;2023-12-07T00:09:33;100366.75;;;3.51;100.00
21956;BME280;11142;49.930;8.606;2023-12-07T00:12:01;100381.38;;;3.49;100.00
21956;BME280;11142;49.930;8.606;2023-12-07T00:14:34;100374.84;;;3.39;100.00
21956;BME280;11142;49.930;8.606;2023-12-07T00:17:06;100384.47;;;3.31;100.00
21956;BME280;11142;49.930;8.606;2023-12-07T00:19:35;100376.09;;;3.24;100.00
21956;BME280;11142;49.930;8.606;2023-12-07T00:22:03;100373.19;;;3.07;100.00
21956;BME280;11142;49.930;8.606;2023-12-07T00:24:32;100381.19;;;2.96;100.00
21956;BME280;11142;49.930;8.606;2023-12-07T00:27:01;100371.00;;;2.93;100.00
21956;BME280;11142;49.930;8.606;2023-12-07T00:29:32;100376.09;;;2.95;100.00
21956;BME280;11142;49.930;8.606;2023-12-07T00:32:03;100376.25;;;2.89;100.00
21956;BME280;11142;49.930;8.606;2023-12-07T00:34:32;100367.19;;;2.77;100.00
21956;BME280;11142;49.930;8.606;2023-12-07T00:37:00;100374.09;;;2.74;100.00
21956;BME280;11142;49.930;8.606;2023-12-07T00:39:30;100378.69;;;2.62;100.00
21956;BME280;11142;49.930;8.606;2023-12-07T00:41:59;100373.75;;;2.55;100.00
21956;BME280;11142;49.930;8.606;2023-12-07T00:44:27;100372.91;;;2.54;100.00
21956;BME280;11142;49.930;8.606;2023-12-07T00:46:56;100370.41;;;2.53;100.00
21956;BME280;11142;49.930;8.606;2023-12-07T00:49:26;100369.75;;;2.45;100.00
21956;BME280;11142;49.930;8.606;2023-12-07T00:51:54;100366.28;;;2.47;100.00
21956;BME280;11142;49.930;8.606;2023-12-07T00:54:23;100367.44;;;2.36;100.00
21956;BME280;11142;49.930;8.606;2023-12-07T00:56:51;100362.53;;;2.27;100.00
21956;BME280;11142;49.930;8.606;2023-12-07T00:59:20;100357.47;;;2.25;100.00
21956;BME280;11142;49.930;8.606;2023-12-07T01:01:48;100362.63;;;2.24;100.00
21956;BME280;11142;49.930;8.606;2023-12-07T01:04:16;100370.81;;;2.38;100.00
21956;BME280;11142;49.930;8.606;2023-12-07T01:06:46;100377.34;;;2.48;100.00
21956;BME280;11142;49.930;8.606;2023-12-07T01:09:15;100372.97;;;2.53;100.00
21956;BME280;11142;49.930;8.606;2023-12-07T01:11:45;100367.41;;;2.37;100.00
21956;BME280;11142;49.930;8.606;2023-12-07T01:14:14;100373.50;;;2.32;100.00
21956;BME280;11142;49.930;8.606;2023-12-07T01:16:43;100371.16;;;2.23;100.00
21956;BME280;11142;49.930;8.606;2023-12-07T01:19:11;100375.28;;;2.30;100.00
21956;BME280;11142;49.930;8.606;2023-12-07T01:21:41;100377.59;;;2.39;100.00
21956;BME280;11142;49.930;8.606;2023-12-07T01:24:10;100383.56;;;2.39;100.00
21956;BME280;11142;49.930;8.606;2023-12-07T01:26:42;100395.50;;;2.40;100.00
21956;BME280;11142;49.930;8.606;2023-12-07T01:29:12;100397.13;;;2.43;100.00
21956;BME280;11142;49.930;8.606;2023-12-07T01:31:42;100397.31;;;2.35;100.00
21956;BME280;11142;49.930;8.606;2023-12-07T01:34:10;100400.00;;;2.31;100.00
21956;BME280;11142;49.930;8.606;2023-12-07T01:36:38;100400.31;;;2.19;100.00
21956;BME280;11142;49.930;8.606;2023-12-07T01:39:10;100397.59;;;2.25;100.00
21956;BME280;11142;49.930;8.606;2023-12-07T01:41:40;100400.88;;;2.30;100.00
21956;BME280;11142;49.930;8.606;2023-12-07T01:44:08;100402.56;;;2.31;100.00
21956;BME280;11142;49.930;8.606;2023-12-07T01:46:36;100408.69;;;2.25;100.00
21956;BME280;11142;49.930;8.606;2023-12-07T01:49:05;100417.38;;;2.18;100.00
21956;BME280;11142;49.930;8.606;2023-12-07T01:51:34;100423.50;;;2.11;100.00
21956;BME280;11142;49.930;8.606;2023-12-07T01:54:03;100421.94;;;2.05;100.00
21956;BME280;11142;49.930;8.606;2023-12-07T01:56:33;100426.47;;;1.94;100.00
21956;BME280;11142;49.930;8.606;2023-12-07T01:59:01;100422.25;;;1.93;100.00
21956;BME280;11142;49.930;8.606;2023-12-07T02:01:30;100420.34;;;2.00;100.00
21956;BME280;11142;49.930;8.606;2023-12-07T02:03:58;100414.66;;;1.89;100.00
21956;BME280;11142;49.930;8.606;2023-12-07T02:06:27;100419.69;;;1.92;100.00
21956;BME280;11142;49.930;8.606;2023-12-07T02:08:55;100421.31;;;1.96;100.00
21956;BME280;11142;49.930;8.606;2023-12-07T02:11:23;100424.75;;;1.95;100.00
21956;BME280;11142;49.930;8.606;2023-12-07T02:13:53;100418.72;;;1.97;100.00
21956;BME280;11142;49.930;8.606;2023-12-07T02:16:27;100418.34;;;1.77;100.00
21956;BME280;11142;49.930;8.606;2023-12-07T02:19:03;100417.13;;;1.55;100.00
21956;BME280;11142;49.930;8.606;2023-12-07T02:21:38;100411.09;;;1.57;100.00
21956;BME280;11142;49.930;8.606;2023-12-07T02:24:10;100411.75;;;1.67;100.00
21956;BME280;11142;49.930;8.606;2023-12-07T02:26:40;100410.53;;;1.82;100.00
21956;BME280;11142;49.930;8.606;2023-12-07T02:29:08;100407.13;;;1.83;100.00
21956;BME280;11142;49.930;8.606;2023-12-07T02:31:36;100414.03;;;1.79;100.00
21956;BME280;11142;49.930;8.606;2023-12-07T02:34:05;100414.09;;;1.75;100.00
21956;BME280;11142;49.930;8.606;2023-12-07T02:36:34;100420.13;;;1.72;100.00
21956;BME280;11142;49.930;8.606;2023-12-07T02:39:05;100417.78;;;1.63;100.00
21956;BME280;11142;49.930;8.606;2023-12-07T02:41:43;100409.25;;;1.64;100.00
21956;BME280;11142;49.930;8.606;2023-12-07T02:44:14;100417.63;;;1.71;100.00
21956;BME280;11142;49.930;8.606;2023-12-07T02:46:42;100413.16;;;1.79;100.00
21956;BME280;11142;49.930;8.606;2023-12-07T02:49:10;100414.03;;;1.78;100.00
21956;BME280;11142;49.930;8.606;2023-12-07T02:51:39;100419.34;;;1.69;100.00
21956;BME280;11142;49.930;8.606;2023-12-07T02:54:07;100411.47;;;1.79;100.00
21956;BME280;11142;49.930;8.606;2023-12-07T02:56:35;100409.97;;;1.71;100.00
21956;BME280;11142;49.930;8.606;2023-12-07T02:59:05;100400.56;;;1.71;100.00
21956;BME280;11142;49.930;8.606;2023-12-07T03:01:33;100404.84;;;1.71;100.00
21956;BME280;11142;49.930;8.606;2023-12-07T03:04:04;100396.41;;;1.67;100.00
21956;BME280;11142;49.930;8.606;2023-12-07T03:06:32;100399.75;;;1.69;100.00
21956;BME280;11142;49.930;8.606;2023-12-07T03:09:02;100408.19;;;1.74;100.00
21956;BME280;11142;49.930;8.606;2023-12-07T03:11:33;100423.69;;;1.67;100.00
21956;BME280;11142;49.930;8.606;2023-12-07T03:14:01;100422.47;;;1.44;100.00
21956;BME280;11142;49.930;8.606;2023-12-07T03:16:32;100414.75;;;1.46;100.00
21956;BME280;11142;49.930;8.606;2023-12-07T03:19:00;100414.44;;;1.61;100.00
21956;BME280;11142;49.930;8.606;2023-12-07T03:21:34;100415.97;;;1.68;100.00
21956;BME280;11142;49.930;8.606;2023-12-07T03:24:07;100427.88;;;1.71;100.00
21956;BME280;11142;49.930;8.606;2023-12-07T03:26:36;100432.41;;;1.56;100.00
21956;BME280;11142;49.930;8.606;2023-12-07T03:29:05;100432.41;;;1.58;100.00
21956;BME280;11142;49.930;8.606;2023-12-07T03:31:34;100429.84;;;1.58;100.00
21956;BME280;11142;49.930;8.606;2023-12-07T03:34:03;100432.47;;;1.55;100.00
21956;BME280;11142;49.930;8.606;2023-12-07T03:36:33;100433.41;;;1.51;100.00
21956;BME280;11142;49.930;8.606;2023-12-07T03:39:01;100437.78;;;1.44;100.00
21956;BME280;11142;49.930;8.606;2023-12-07T03:41:31;100432.03;;;1.35;100.00
21956;BME280;11142;49.930;8.606;2023-12-07T03:44:00;100426.13;;;1.31;100.00
21956;BME280;11142;49.930;8.606;2023-12-07T03:46:28;100421.13;;;1.27;100.00
21956;BME280;11142;49.930;8.606;2023-12-07T03:48:59;100424.75;;;1.17;100.00
21956;BME280;11142;49.930;8.606;2023-12-07T03:51:30;100423.72;;;1.25;100.00
21956;BME280;11142;49.930;8.606;2023-12-07T03:54:00;100428.63;;;1.34;100.00
21956;BME280;11142;49.930;8.606;2023-12-07T03:56:29;100426.25;;;1.27;100.00
21956;BME280;11142;49.930;8.606;2023-12-07T03:58:57;100418.72;;;1.19;100.00
21956;BME280;11142;49.930;8.606;2023-12-07T04:01:27;100428.09;;;1.19;100.00
21956;BME280;11142;49.930;8.606;2023-12-07T04:03:56;100424.88;;;1.09;100.00
21956;BME280;11142;49.930;8.606;2023-12-07T04:06:28;100417.16;;;1.12;100.00
21956;BME280;11142;49.930;8.606;2023-12-07T04:08:57;100424.81;;;1.14;100.00
21956;BME280;11142;49.930;8.606;2023-12-07T04:11:25;100425.72;;;1.10;100.00
21956;BME280;11142;49.930;8.606;2023-12-07T04:13:53;100422.44;;;1.04;100.00
21956;BME280;11142;49.930;8.606;2023-12-07T04:16:22;100424.09;;;1.05;100.00
21956;BME280;11142;49.930;8.606;2023-12-07T04:18:51;100423.44;;;0.96;100.00
21956;BME280;11142;49.930;8.606;2023-12-07T04:21:20;100426.94;;;0.90;100.00
21956;BME280;11142;49.930;8.606;2023-12-07T04:23:50;100427.69;;;0.97;100.00
21956;BME280;11142;49.930;8.606;2023-12-07T04:26:20;100415.75;;;0.97;100.00
21956;BME280;11142;49.930;8.606;2023-12-07T04:28:49;100425.66;;;1.14;100.00
21956;BME280;11142;49.930;8.606;2023-12-07T04:31:17;100422.00;;;1.24;100.00
21956;BME280;11142;49.930;8.606;2023-12-07T04:33:46;100425.47;;;1.22;100.00
21956;BME280;11142;49.930;8.606;2023-12-07T04:36:14;100436.50;;;1.25;100.00
21956;BME280;11142;49.930;8.606;2023-12-07T04:38:43;100442.59;;;1.18;100.00
21956;BME280;11142;49.930;8.606;2023-12-07T04:41:16;100446.91;;;1.15;100.00
21956;BME280;11142;49.930;8.606;2023-12-07T04:43:45;100449.25;;;1.27;100.00
21956;BME280;11142;49.930;8.606;2023-12-07T04:46:13;100450.97;;;1.26;100.00
21956;BME280;11142;49.930;8.606;2023-12-07T04:48:44;100449.94;;;1.33;100.00
21956;BME280;11142;49.930;8.606;2023-12-07T04:51:13;100461.00;;;1.34;100.00
21956;BME280;11142;49.930;8.606;2023-12-07T04:53:41;100457.78;;;1.26;100.00
21956;BME280;11142;49.930;8.606;2023-12-07T04:56:10;100458.09;;;1.09;100.00
21956;BME280;11142;49.930;8.606;2023-12-07T04:58:40;100470.19;;;1.01;100.00
21956;BME280;11142;49.930;8.606;2023-12-07T05:01:11;100463.31;;;1.03;100.00
21956;BME280;11142;49.930;8.606;2023-12-07T05:03:39;100462.97;;;1.21;100.00
21956;BME280;11142;49.930;8.606;2023-12-07T05:06:08;100471.34;;;1.29;100.00
21956;BME280;11142;49.930;8.606;2023-12-07T05:08:38;100467.03;;;1.31;100.00
21956;BME280;11142;49.930;8.606;2023-12-07T05:11:07;100466.16;;;1.32;100.00
21956;BME280;11142;49.930;8.606;2023-12-07T05:13:35;100460.16;;;1.35;100.00
21956;BME280;11142;49.930;8.606;2023-12-07T05:16:05;100462.50;;;1.44;100.00
21956;BME280;11142;49.930;8.606;2023-12-07T05:18:34;100458.25;;;1.43;100.00
21956;BME280;11142;49.930;8.606;2023-12-07T05:21:04;100472.13;;;1.33;100.00
21956;BME280;11142;49.930;8.606;2023-12-07T05:23:33;100470.38;;;1.35;100.00
21956;BME280;11142;49.930;8.606;2023-12-07T05:26:05;100466.03;;;1.38;100.00
21956;BME280;11142;49.930;8.606;2023-12-07T05:28:36;100469.59;;;1.31;100.00
21956;BME280;11142;49.930;8.606;2023-12-07T05:31:07;100476.84;;;1.10;100.00
21956;BME280;11142;49.930;8.606;2023-12-07T05:33:34;100468.41;;;1.04;100.00
21956;BME280;11142;49.930;8.606;2023-12-07T05:36:04;100469.34;;;1.00;100.00
21956;BME280;11142;49.930;8.606;2023-12-07T05:38:36;100461.69;;;0.99;100.00
21956;BME280;11142;49.930;8.606;2023-12-07T05:41:07;100463.63;;;0.86;100.00
21956;BME280;11142;49.930;8.606;2023-12-07T05:43:36;100456.81;;;0.87;100.00
21956;BME280;11142;49.930;8.606;2023-12-07T05:46:04;100450.84;;;0.88;100.00
21956;BME280;11142;49.930;8.606;2023-12-07T05:48:34;100443.78;;;1.00;100.00
21956;BME280;11142;49.930;8.606;2023-12-07T05:51:12;100444.59;;;1.02;100.00
21956;BME280;11142;49.930;8.606;2023-12-07T05:53:43;100443.50;;;1.16;100.00
21956;BME280;11142;49.930;8.606;2023-12-07T05:56:12;100448.28;;;1.31;100.00
21956;BME280;11142;49.930;8.606;2023-12-07T05:58:46;100445.41;;;1.47;100.00
21956;BME280;11142;49.930;8.606;2023-12-07T06:01:16;100452.78;;;1.61;100.00
21956;BME280;11142;49.930;8.606;2023-12-07T06:04:07;100458.63;;;1.68;100.00
21956;BME280;11142;49.930;8.606;2023-12-07T06:06:37;100464.59;;;1.67;100.00
21956;BME280;11142;49.930;8.606;2023-12-07T06:09:06;100476.66;;;1.62;100.00
21956;BME280;11142;49.930;8.606;2023-12-07T06:11:35;100473.78;;;1.75;100.00
21956;BME280;11142;49.930;8.606;2023-12-07T06:14:04;100466.66;;;1.89;100.00
21956;BME280;11142;49.930;8.606;2023-12-07T06:16:33;100469.88;;;1.97;100.00
21956;BME280;11142;49.930;8.606;2023-12-07T06:19:02;100474.91;;;2.02;100.00
21956;BME280;11142;49.930;8.606;2023-12-07T06:21:33;100470.97;;;1.87;100.00
21956;BME280;11142;49.930;8.606;2023-12-07T06:24:03;100469.94;;;1.94;100.00
21956;BME280;11142;49.930;8.606;2023-12-07T06:26:33;100470.63;;;2.02;100.00
21956;BME280;11142;49.930;8.606;2023-12-07T06:29:03;100465.31;;;2.11;100.00
21956;BME280;11142;49.930;8.606;2023-12-07T06:31:35;100471.00;;;2.23;100.00
21956;BME280;11142;49.930;8.606;2023-12-07T06:34:05;100477.97;;;2.18;100.00
21956;BME280;11142;49.930;8.606;2023-12-07T06:36:34;100478.69;;;2.23;100.00
21956;BME280;11142;49.930;8.606;2023-12-07T06:39:03;100485.94;;;2.05;100.00
21956;BME280;11142;49.930;8.606;2023-12-07T06:41:31;100481.38;;;2.17;100.00
21956;BME280;11142;49.930;8.606;2023-12-07T06:44:00;100480.31;;;2.27;100.00
21956;BME280;11142;49.930;8.606;2023-12-07T06:46:29;100481.94;;;2.29;100.00
21956;BME280;11142;49.930;8.606;2023-12-07T06:49:00;100488.16;;;2.19;100.00
21956;BME280;11142;49.930;8.606;2023-12-07T06:51:29;100499.03;;;2.29;100.00
21956;BME280;11142;49.930;8.606;2023-12-07T06:54:02;100505.63;;;2.39;100.00
21956;BME280;11142;49.930;8.606;2023-12-07T06:56:30;100508.69;;;2.16;100.00
21956;BME280;11142;49.930;8.606;2023-12-07T06:58:59;100499.03;;;1.90;100.00
21956;BME280;11142;49.930;8.606;2023-12-07T07:01:32;100492.09;;;1.14;100.00
21956;BME280;11142;49.930;8.606;2023-12-07T07:04:00;100488.19;;;0.95;100.00
21956;BME280;11142;49.930;8.606;2023-12-07T07:06:30;100470.25;;;0.98;100.00
21956;BME280;11142;49.930;8.606;2023-12-07T07:09:04;100459.56;;;1.21;100.00
21956;BME280;11142;49.930;8.606;2023-12-07T07:11:33;100454.97;;;1.78;100.00
21956;BME280;11142;49.930;8.606;2023-12-07T07:14:01;100452.25;;;2.22;100.00
21956;BME280;11142;49.930;8.606;2023-12-07T07:16:30;100469.91;;;2.34;100.00
21956;BME280;11142;49.930;8.606;2023-12-07T07:18:59;100486.06;;;2.36;100.00
21956;BME280;11142;49.930;8.606;2023-12-07T07:21:27;100495.22;;;2.45;100.00
21956;BME280;11142;49.930;8.606;2023-12-07T07:23:56;100498.47;;;2.53;100.00
21956;BME280;11142;49.930;8.606;2023-12-07T07:26:25;100502.19;;;2.75;100.00
21956;BME280;11142;49.930;8.606;2023-12-07T07:28:55;100510.25;;;2.94;100.00
21956;BME280;11142;49.930;8.606;2023-12-07T07:31:24;100520.88;;;3.12;100.00
21956;BME280;11142;49.930;8.606;2023-12-07T07:33:52;100533.34;;;3.26;100.00
21956;BME280;11142;49.930;8.606;2023-12-07T07:36:28;100531.28;;;3.39;100.00
21956;BME280;11142;49.930;8.606;2023-12-07T07:38:58;100535.03;;;3.58;100.00
21956;BME280;11142;49.930;8.606;2023-12-07T07:41:28;100537.69;;;3.84;100.00
21956;BME280;11142;49.930;8.606;2023-12-07T07:43:59;100539.00;;;3.97;100.00
21956;BME280;11142;49.930;8.606;2023-12-07T07:46:28;100546.31;;;4.11;100.00
21956;BME280;11142;49.930;8.606;2023-12-07T07:48:56;100549.84;;;4.35;100.00
21956;BME280;11142;49.930;8.606;2023-12-07T07:51:25;100544.28;;;4.50;100.00
21956;BME280;11142;49.930;8.606;2023-12-07T07:53:54;100545.72;;;4.57;100.00
21956;BME280;11142;49.930;8.606;2023-12-07T07:56:26;100542.38;;;4.55;100.00
21956;BME280;11142;49.930;8.606;2023-12-07T07:58:56;100534.44;;;4.62;100.00
21956;BME280;11142;49.930;8.606;2023-12-07T08:01:27;100544.22;;;4.77;100.00
21956;BME280;11142;49.930;8.606;2023-12-07T08:03:55;100541.84;;;4.98;100.00
21956;BME280;11142;49.930;8.606;2023-12-07T08:06:26;100538.69;;;5.14;100.00
21956;BME280;11142;49.930;8.606;2023-12-07T08:08:59;100545.41;;;5.18;100.00
21956;BME280;11142;49.930;8.606;2023-12-07T08:11:29;100528.88;;;5.25;100.00
21956;BME280;11142;49.930;8.606;2023-12-07T08:14:01;100523.47;;;5.33;100.00
21956;BME280;11142;49.930;8.606;2023-12-07T08:16:35;100523.03;;;5.20;100.00
21956;BME280;11142;49.930;8.606;2023-12-07T08:19:04;100510.94;;;4.99;100.00
21956;BME280;11142;49.930;8.606;2023-12-07T08:21:33;100503.41;;;4.93;100.00
21956;BME280;11142;49.930;8.606;2023-12-07T08:24:01;100500.06;;;4.91;100.00
21956;BME280;11142;49.930;8.606;2023-12-07T08:26:37;100504.25;;;4.69;100.00
21956;BME280;11142;49.930;8.606;2023-12-07T08:29:09;100500.34;;;4.31;100.00
21956;BME280;11142;49.930;8.606;2023-12-07T08:31:39;100492.88;;;4.50;100.00
21956;BME280;11142;49.930;8.606;2023-12-07T08:34:08;100468.34;;;5.15;100.00
21956;BME280;11142;49.930;8.606;2023-12-07T08:36:36;100471.63;;;5.67;100.00
21956;BME280;11142;49.930;8.606;2023-12-07T08:39:06;100472.78;;;6.05;100.00
21956;BME280;11142;49.930;8.606;2023-12-07T08:41:39;100492.56;;;6.04;100.00
21956;BME280;11142;49.930;8.606;2023-12-07T08:44:10;100495.16;;;6.03;100.00
21956;BME280;11142;49.930;8.606;2023-12-07T08:46:39;100498.34;;;6.09;100.00
21956;BME280;11142;49.930;8.606;2023-12-07T08:49:08;100491.94;;;6.19;100.00
21956;BME280;11142;49.930;8.606;2023-12-07T08:51:36;100482.25;;;6.26;100.00
21956;BME280;11142;49.930;8.606;2023-12-07T08:54:11;100497.25;;;5.93;100.00
21956;BME280;11142;49.930;8.606;2023-12-07T08:56:39;100500.16;;;5.84;100.00
21956;BME280;11142;49.930;8.606;2023-12-07T08:59:07;100501.75;;;5.88;100.00
21956;BME280;11142;49.930;8.606;2023-12-07T09:01:37;100496.00;;;6.03;100.00
21956;BME280;11142;49.930;8.606;2023-12-07T09:04:05;100484.53;;;6.12;100.00
21956;BME280;11142;49.930;8.606;2023-12-07T09:06:35;100508.03;;;6.03;100.00
21956;BME280;11142;49.930;8.606;2023-12-07T09:09:04;100523.13;;;5.67;100.00
21956;BME280;11142;49.930;8.606;2023-12-07T09:11:33;100508.72;;;5.84;100.00
21956;BME280;11142;49.930;8.606;2023-12-07T09:14:01;100513.38;;;6.21;100.00
21956;BME280;11142;49.930;8.606;2023-12-07T09:16:29;100500.22;;;6.69;100.00
21956;BME280;11142;49.930;8.606;2023-12-07T09:18:59;100512.34;;;7.09;100.00
21956;BME280;11142;49.930;8.606;2023-12-07T09:21:27;100520.56;;;7.17;100.00
21956;BME280;11142;49.930;8.606;2023-12-07T09:23:55;100520.91;;;7.10;100.00
21956;BME280;11142;49.930;8.606;2023-12-07T09:26:23;100528.44;;;7.14;100.00
21956;BME280;11142;49.930;8.606;2023-12-07T09:28:54;100526.13;;;7.28;100.00
21956;BME280;11142;49.930;8.606;2023-12-07T09:31:22;100532.84;;;7.12;100.00
21956;BME280;11142;49.930;8.606;2023-12-07T09:33:50;100538.81;;;6.92;100.00
21956;BME280;11142;49.930;8.606;2023-12-07T09:36:21;100540.44;;;6.75;100.00
21956;BME280;11142;49.930;8.606;2023-12-07T09:38:51;100550.94;;;6.27;100.00
21956;BME280;11142;49.930;8.606;2023-12-07T09:41:19;100538.69;;;6.54;100.00
21956;BME280;11142;49.930;8.606;2023-12-07T09:43:50;100555.72;;;6.14;100.00
21956;BME280;11142;49.930;8.606;2023-12-07T09:46:19;100556.53;;;5.44;100.00
21956;BME280;11142;49.930;8.606;2023-12-07T09:48:48;100570.00;;;4.48;100.00
21956;BME280;11142;49.930;8.606;2023-12-07T09:51:18;100543.91;;;3.75;100.00
21956;BME280;11142;49.930;8.606;2023-12-07T09:53:52;100516.41;;;2.51;100.00
21956;BME280;11142;49.930;8.606;2023-12-07T09:56:21;100493.41;;;2.50;100.00
21956;BME280;11142;49.930;8.606;2023-12-07T09:58:50;100484.50;;;2.66;100.00
21956;BME280;11142;49.930;8.606;2023-12-07T10:01:17;100479.94;;;2.42;100.00
21956;BME280;11142;49.930;8.606;2023-12-07T10:03:45;100469.59;;;2.09;100.00
21956;BME280;11142;49.930;8.606;2023-12-07T10:06:15;100455.41;;;2.33;100.00
21956;BME280;11142;49.930;8.606;2023-12-07T10:08:43;100455.25;;;2.39;100.00
21956;BME280;11142;49.930;8.606;2023-12-07T10:11:15;100450.72;;;2.15;100.00
21956;BME280;11142;49.930;8.606;2023-12-07T10:13:45;100437.47;;;1.98;100.00
21956;BME280;11142;49.930;8.606;2023-12-07T10:16:15;100430.31;;;1.75;100.00
21956;BME280;11142;49.930;8.606;2023-12-07T10:18:44;100413.31;;;1.73;100.00
21956;BME280;11142;49.930;8.606;2023-12-07T10:21:13;100412.81;;;1.57;100.00
21956;BME280;11142;49.930;8.606;2023-12-07T10:23:44;100409.47;;;1.90;100.00
21956;BME280;11142;49.930;8.606;2023-12-07T10:26:19;100405.13;;;1.57;100.00
21956;BME280;11142;49.930;8.606;2023-12-07T10:28:49;100399.31;;;1.11;100.00
21956;BME280;11142;49.930;8.606;2023-12-07T10:31:21;100382.66;;;1.33;100.00
21956;BME280;11142;49.930;8.606;2023-12-07T10:33:51;100369.75;;;1.76;100.00
21956;BME280;11142;49.930;8.606;2023-12-07T10:36:19;100370.63;;;1.75;100.00
21956;BME280;11142;49.930;8.606;2023-12-07T10:38:47;100364.88;;;1.65;100.00
21956;BME280;11142;49.930;8.606;2023-12-07T10:41:20;100367.81;;;1.85;100.00
21956;BME280;11142;49.930;8.606;2023-12-07T10:43:49;100366.34;;;2.44;100.00
21956;BME280;11142;49.930;8.606;2023-12-07T10:46:20;100376.44;;;3.12;100.00
21956;BME280;11142;49.930;8.606;2023-12-07T10:48:53;100388.34;;;3.44;100.00
21956;BME280;11142;49.930;8.606;2023-12-07T10:51:29;100410.16;;;3.29;100.00
21956;BME280;11142;49.930;8.606;2023-12-07T10:54:03;100427.63;;;2.52;100.00
21956;BME280;11142;49.930;8.606;2023-12-07T10:56:39;100411.97;;;2.30;100.00
21956;BME280;11142;49.930;8.606;2023-12-07T10:59:11;100414.06;;;2.13;100.00
21956;BME280;11142;49.930;8.606;2023-12-07T11:01:57;100401.63;;;1.98;100.00
21956;BME280;11142;49.930;8.606;2023-12-07T11:04:27;100393.19;;;2.30;100.00
21956;BME280;11142;49.930;8.606;2023-12-07T11:07:06;100396.22;;;2.10;100.00
21956;BME280;11142;49.930;8.606;2023-12-07T11:09:44;100379.22;;;2.09;100.00
21956;BME280;11142;49.930;8.606;2023-12-07T11:12:22;100368.72;;;2.52;100.00
21956;BME280;11142;49.930;8.606;2023-12-07T11:14:52;100374.03;;;2.44;100.00
21956;BME280;11142;49.930;8.606;2023-12-07T11:17:21;100372.50;;;2.69;100.00
21956;BME280;11142;49.930;8.606;2023-12-07T11:19:58;100379.38;;;3.00;100.00
21956;BME280;11142;49.930;8.606;2023-12-07T11:22:28;100372.44;;;2.73;100.00
21956;BME280;11142;49.930;8.606;2023-12-07T11:25:01;100364.75;;;3.03;100.00
21956;BME280;11142;49.930;8.606;2023-12-07T11:27:35;100362.41;;;4.07;100.00
21956;BME280;11142;49.930;8.606;2023-12-07T11:30:04;100397.94;;;4.20;100.00
21956;BME280;11142;49.930;8.606;2023-12-07T11:32:33;100413.22;;;4.50;100.00
21956;BME280;11142;49.930;8.606;2023-12-07T11:35:03;100432.16;;;4.72;100.00
21956;BME280;11142;49.930;8.606;2023-12-07T11:38:05;100442.56;;;4.69;100.00
21956;BME280;11142;49.930;8.606;2023-12-07T11:40:40;100443.53;;;5.38;100.00
21956;BME280;11142;49.930;8.606;2023-12-07T11:43:32;100438.16;;;6.12;100.00
21956;BME280;11142;49.930;8.606;2023-12-07T11:46:05;100454.88;;;6.23;100.00
21956;BME280;11142;49.930;8.606;2023-12-07T11:48:36;100459.38;;;6.18;100.00
21956;BME280;11142;49.930;8.606;2023-12-07T11:51:08;100447.44;;;6.58;100.00
21956;BME280;11142;49.930;8.606;2023-12-07T11:53:38;100444.44;;;7.07;100.00
21956;BME280;11142;49.930;8.606;2023-12-07T11:56:08;100438.06;;;7.55;100.00
21956;BME280;11142;49.930;8.606;2023-12-07T11:58:42;100448.41;;;5.22;100.00
21956;BME280;11142;49.930;8.606;2023-12-07T12:01:12;100432.31;;;4.67;100.00
21956;BME280;11142;49.930;8.606;2023-12-07T12:03:43;100407.59;;;3.86;100.00
21956;BME280;11142;49.930;8.606;2023-12-07T12:06:11;100373.50;;;3.26;100.00
21956;BME280;11142;49.930;8.606;2023-12-07T12:08:42;100351.78;;;3.37;100.00
21956;BME280;11142;49.930;8.606;2023-12-07T12:11:13;100351.97;;;3.02;100.00
21956;BME280;11142;49.930;8.606;2023-12-07T12:13:45;100321.50;;;4.02;100.00
21956;BME280;11142;49.930;8.606;2023-12-07T12:16:15;100337.13;;;4.21;100.00
21956;BME280;11142;49.930;8.606;2023-12-07T12:18:46;100338.28;;;4.37;100.00
21956;BME280;11142;49.930;8.606;2023-12-07T12:21:15;100348.56;;;4.62;100.00
21956;BME280;11142;49.930;8.606;2023-12-07T12:23:48;100339.56;;;4.73;100.00
21956;BME280;11142;49.930;8.606;2023-12-07T12:26:17;100343.31;;;5.34;100.00
21956;BME280;11142;49.930;8.606;2023-12-07T12:28:48;100374.97;;;5.36;100.00
21956;BME280;11142;49.930;8.606;2023-12-07T12:31:17;100364.13;;;5.28;100.00
21956;BME280;11142;49.930;8.606;2023-12-07T12:33:47;100357.69;;;5.83;100.00
21956;BME280;11142;49.930;8.606;2023-12-07T12:36:19;100370.00;;;5.99;100.00
21956;BME280;11142;49.930;8.606;2023-12-07T12:38:50;100370.28;;;6.33;100.00
21956;BME280;11142;49.930;8.606;2023-12-07T12:41:19;100381.56;;;6.51;100.00
21956;BME280;11142;49.930;8.606;2023-12-07T12:43:49;100381.72;;;4.93;100.00
21956;BME280;11142;49.930;8.606;2023-12-07T12:46:20;100369.34;;;4.56;100.00
21956;BME280;11142;49.930;8.606;2023-12-07T12:48:57;100360.78;;;4.55;100.00
21956;BME280;11142;49.930;8.606;2023-12-07T12:51:28;100350.84;;;4.69;100.00
21956;BME280;11142;49.930;8.606;2023-12-07T12:54:00;100351.34;;;4.31;100.00
21956;BME280;11142;49.930;8.606;2023-12-07T12:56:30;100345.28;;;4.07;100.00
21956;BME280;11142;49.930;8.606;2023-12-07T12:59:05;100325.59;;;4.08;100.00
21956;BME280;11142;49.930;8.606;2023-12-07T13:01:35;100323.63;;;3.63;100.00
21956;BME280;11142;49.930;8.606;2023-12-07T13:04:07;100317.38;;;3.44;100.00
21956;BME280;11142;49.930;8.606;2023-12-07T13:06:39;100310.09;;;3.31;100.00